Terminal Aerodrome Forecast
Issued by NWS

Home | Current Version | Previous Version | Text Only | Print | Product List | Glossary Off
Versions: 1 2 3 4 5 6 7 8 9 10 11 12

333
FTUS44 KTSA 281120
TAFRVS
TAF
KRVS 281120Z 2812/2912 16010KT P6SM FEW100 SCT250
     FM281500 17017G25KT P6SM SCT050 SCT250
     FM290300 16010KT P6SM SCT250=

USA.gov is the U.S. government's official web portal to all federal, state and local government web resources and services.